sensor_id;sensor_type;location;lat;lon;timestamp;P1;durP1;ratioP1;P2;durP2;ratioP2
4696;SDS011;2362;50.780;0.292;2023-05-10T00:02:12;20.55;;;7.63;;
4696;SDS011;2362;50.780;0.292;2023-05-10T00:04:38;19.67;;;6.35;;
4696;SDS011;2362;50.780;0.292;2023-05-10T00:07:03;22.70;;;6.07;;
4696;SDS011;2362;50.780;0.292;2023-05-10T00:09:29;12.05;;;5.47;;
4696;SDS011;2362;50.780;0.292;2023-05-10T00:11:54;11.32;;;4.10;;
4696;SDS011;2362;50.780;0.292;2023-05-10T00:14:23;13.18;;;3.67;;
4696;SDS011;2362;50.780;0.292;2023-05-10T00:16:48;11.52;;;3.50;;
4696;SDS011;2362;50.780;0.292;2023-05-10T00:19:15;9.07;;;2.92;;
4696;SDS011;2362;50.780;0.292;2023-05-10T00:21:41;5.40;;;2.42;;
4696;SDS011;2362;50.780;0.292;2023-05-10T00:24:07;5.30;;;2.28;;
4696;SDS011;2362;50.780;0.292;2023-05-10T00:26:32;5.78;;;1.65;;
4696;SDS011;2362;50.780;0.292;2023-05-10T00:28:58;11.00;;;2.05;;
4696;SDS011;2362;50.780;0.292;2023-05-10T00:31:23;8.73;;;2.55;;
4696;SDS011;2362;50.780;0.292;2023-05-10T00:33:49;4.93;;;1.55;;
4696;SDS011;2362;50.780;0.292;2023-05-10T00:36:15;2.90;;;1.60;;
4696;SDS011;2362;50.780;0.292;2023-05-10T00:38:40;3.47;;;1.30;;
4696;SDS011;2362;50.780;0.292;2023-05-10T00:41:06;5.18;;;1.17;;
4696;SDS011;2362;50.780;0.292;2023-05-10T00:43:32;4.72;;;1.10;;
4696;SDS011;2362;50.780;0.292;2023-05-10T00:45:57;1.20;;;0.80;;
4696;SDS011;2362;50.780;0.292;2023-05-10T00:48:23;3.42;;;1.10;;
4696;SDS011;2362;50.780;0.292;2023-05-10T00:50:49;3.92;;;1.20;;
4696;SDS011;2362;50.780;0.292;2023-05-10T00:53:15;1.95;;;1.08;;
4696;SDS011;2362;50.780;0.292;2023-05-10T00:55:41;5.43;;;0.93;;
4696;SDS011;2362;50.780;0.292;2023-05-10T00:58:07;2.30;;;0.68;;
4696;SDS011;2362;50.780;0.292;2023-05-10T01:00:33;5.10;;;1.25;;
4696;SDS011;2362;50.780;0.292;2023-05-10T01:02:59;2.70;;;1.10;;
4696;SDS011;2362;50.780;0.292;2023-05-10T01:05:25;4.85;;;0.93;;
4696;SDS011;2362;50.780;0.292;2023-05-10T01:07:52;2.45;;;1.00;;
4696;SDS011;2362;50.780;0.292;2023-05-10T01:10:18;2.88;;;0.85;;
4696;SDS011;2362;50.780;0.292;2023-05-10T01:12:45;3.20;;;0.93;;
4696;SDS011;2362;50.780;0.292;2023-05-10T01:15:12;1.92;;;0.68;;
4696;SDS011;2362;50.780;0.292;2023-05-10T01:17:39;3.08;;;0.90;;
4696;SDS011;2362;50.780;0.292;2023-05-10T01:20:07;3.28;;;0.90;;
4696;SDS011;2362;50.780;0.292;2023-05-10T01:36:27;3.88;;;0.82;;
4696;SDS011;2362;50.780;0.292;2023-05-10T01:48:07;8.02;;;1.55;;
4696;SDS011;2362;50.780;0.292;2023-05-10T01:50:35;4.03;;;1.15;;
4696;SDS011;2362;50.780;0.292;2023-05-10T01:53:03;13.23;;;1.60;;
4696;SDS011;2362;50.780;0.292;2023-05-10T01:55:35;5.28;;;1.40;;
4696;SDS011;2362;50.780;0.292;2023-05-10T01:58:31;2.58;;;1.08;;
4696;SDS011;2362;50.780;0.292;2023-05-10T02:01:00;5.13;;;1.60;;
4696;SDS011;2362;50.780;0.292;2023-05-10T02:03:28;3.72;;;1.67;;
4696;SDS011;2362;50.780;0.292;2023-05-10T02:05:56;4.18;;;1.13;;
4696;SDS011;2362;50.780;0.292;2023-05-10T02:08:23;5.57;;;1.75;;
4696;SDS011;2362;50.780;0.292;2023-05-10T02:10:50;3.67;;;1.25;;
4696;SDS011;2362;50.780;0.292;2023-05-10T02:13:18;3.03;;;1.38;;
4696;SDS011;2362;50.780;0.292;2023-05-10T02:15:46;2.95;;;1.27;;
4696;SDS011;2362;50.780;0.292;2023-05-10T02:18:13;2.20;;;1.20;;
4696;SDS011;2362;50.780;0.292;2023-05-10T02:20:40;12.85;;;1.65;;
4696;SDS011;2362;50.780;0.292;2023-05-10T02:23:08;4.35;;;1.17;;
4696;SDS011;2362;50.780;0.292;2023-05-10T02:25:36;7.50;;;1.52;;
4696;SDS011;2362;50.780;0.292;2023-05-10T02:28:04;6.53;;;1.20;;
4696;SDS011;2362;50.780;0.292;2023-05-10T02:30:32;7.38;;;1.45;;
4696;SDS011;2362;50.780;0.292;2023-05-10T02:32:59;9.10;;;1.60;;
4696;SDS011;2362;50.780;0.292;2023-05-10T02:35:26;8.00;;;1.20;;
4696;SDS011;2362;50.780;0.292;2023-05-10T02:37:52;8.60;;;1.80;;
4696;SDS011;2362;50.780;0.292;2023-05-10T02:40:19;6.53;;;1.73;;
4696;SDS011;2362;50.780;0.292;2023-05-10T02:42:47;5.82;;;1.92;;
4696;SDS011;2362;50.780;0.292;2023-05-10T02:45:19;13.55;;;2.42;;
4696;SDS011;2362;50.780;0.292;2023-05-10T02:47:47;6.30;;;1.88;;
4696;SDS011;2362;50.780;0.292;2023-05-10T02:50:13;7.70;;;1.83;;
4696;SDS011;2362;50.780;0.292;2023-05-10T02:52:43;7.22;;;2.28;;
4696;SDS011;2362;50.780;0.292;2023-05-10T02:55:12;5.03;;;2.30;;
4696;SDS011;2362;50.780;0.292;2023-05-10T02:57:46;9.98;;;2.58;;
4696;SDS011;2362;50.780;0.292;2023-05-10T03:00:24;6.68;;;2.97;;
4696;SDS011;2362;50.780;0.292;2023-05-10T03:02:50;10.77;;;3.17;;
4696;SDS011;2362;50.780;0.292;2023-05-10T03:05:15;7.82;;;3.25;;
4696;SDS011;2362;50.780;0.292;2023-05-10T03:07:41;9.20;;;3.38;;
4696;SDS011;2362;50.780;0.292;2023-05-10T03:10:07;19.90;;;4.22;;
4696;SDS011;2362;50.780;0.292;2023-05-10T03:12:38;8.82;;;4.22;;
4696;SDS011;2362;50.780;0.292;2023-05-10T03:15:13;15.93;;;4.45;;
4696;SDS011;2362;50.780;0.292;2023-05-10T03:18:01;12.63;;;4.63;;
4696;SDS011;2362;50.780;0.292;2023-05-10T03:20:35;8.82;;;3.67;;
4696;SDS011;2362;50.780;0.292;2023-05-10T03:23:11;9.68;;;4.13;;
4696;SDS011;2362;50.780;0.292;2023-05-10T03:25:43;16.05;;;4.72;;
4696;SDS011;2362;50.780;0.292;2023-05-10T03:28:12;13.80;;;5.32;;
4696;SDS011;2362;50.780;0.292;2023-05-10T03:30:39;17.55;;;5.55;;
4696;SDS011;2362;50.780;0.292;2023-05-10T03:33:06;24.73;;;5.80;;
4696;SDS011;2362;50.780;0.292;2023-05-10T03:35:32;23.20;;;6.30;;
4696;SDS011;2362;50.780;0.292;2023-05-10T03:37:58;12.13;;;5.28;;
4696;SDS011;2362;50.780;0.292;2023-05-10T03:40:24;14.43;;;6.13;;
4696;SDS011;2362;50.780;0.292;2023-05-10T03:42:51;15.65;;;5.60;;
4696;SDS011;2362;50.780;0.292;2023-05-10T03:45:17;17.70;;;5.70;;
4696;SDS011;2362;50.780;0.292;2023-05-10T03:47:42;21.70;;;5.55;;
4696;SDS011;2362;50.780;0.292;2023-05-10T03:50:08;25.25;;;5.68;;
4696;SDS011;2362;50.780;0.292;2023-05-10T03:52:35;19.42;;;6.15;;
4696;SDS011;2362;50.780;0.292;2023-05-10T03:55:00;15.38;;;6.03;;
4696;SDS011;2362;50.780;0.292;2023-05-10T03:57:28;13.63;;;6.20;;
4696;SDS011;2362;50.780;0.292;2023-05-10T03:59:54;18.88;;;6.80;;
4696;SDS011;2362;50.780;0.292;2023-05-10T04:02:19;18.77;;;5.82;;
4696;SDS011;2362;50.780;0.292;2023-05-10T04:04:45;20.30;;;7.30;;
4696;SDS011;2362;50.780;0.292;2023-05-10T04:07:11;21.63;;;6.78;;
4696;SDS011;2362;50.780;0.292;2023-05-10T04:09:36;18.50;;;6.60;;
4696;SDS011;2362;50.780;0.292;2023-05-10T04:12:02;23.58;;;7.82;;
4696;SDS011;2362;50.780;0.292;2023-05-10T04:14:28;16.50;;;7.43;;
4696;SDS011;2362;50.780;0.292;2023-05-10T04:16:53;24.70;;;8.30;;
4696;SDS011;2362;50.780;0.292;2023-05-10T04:19:20;23.23;;;7.63;;
4696;SDS011;2362;50.780;0.292;2023-05-10T04:21:45;18.65;;;7.43;;
4696;SDS011;2362;50.780;0.292;2023-05-10T04:24:11;30.77;;;7.93;;
4696;SDS011;2362;50.780;0.292;2023-05-10T04:26:37;23.35;;;8.10;;
4696;SDS011;2362;50.780;0.292;2023-05-10T04:29:02;22.02;;;8.40;;
4696;SDS011;2362;50.780;0.292;2023-05-10T04:31:28;19.10;;;8.68;;
4696;SDS011;2362;50.780;0.292;2023-05-10T04:33:54;22.35;;;8.18;;
4696;SDS011;2362;50.780;0.292;2023-05-10T04:36:20;25.38;;;8.30;;
4696;SDS011;2362;50.780;0.292;2023-05-10T04:38:45;25.88;;;9.77;;
4696;SDS011;2362;50.780;0.292;2023-05-10T04:41:11;20.88;;;8.48;;
4696;SDS011;2362;50.780;0.292;2023-05-10T04:43:37;19.70;;;8.40;;
4696;SDS011;2362;50.780;0.292;2023-05-10T04:46:03;32.25;;;9.15;;
4696;SDS011;2362;50.780;0.292;2023-05-10T04:48:30;20.35;;;9.18;;
4696;SDS011;2362;50.780;0.292;2023-05-10T04:50:55;31.08;;;10.20;;
4696;SDS011;2362;50.780;0.292;2023-05-10T04:53:21;22.52;;;10.10;;
4696;SDS011;2362;50.780;0.292;2023-05-10T04:55:47;24.00;;;9.75;;
4696;SDS011;2362;50.780;0.292;2023-05-10T04:58:13;28.75;;;9.35;;
4696;SDS011;2362;50.780;0.292;2023-05-10T05:00:38;23.33;;;9.35;;
4696;SDS011;2362;50.780;0.292;2023-05-10T05:03:04;13.48;;;8.85;;
4696;SDS011;2362;50.780;0.292;2023-05-10T05:05:30;23.17;;;9.43;;
4696;SDS011;2362;50.780;0.292;2023-05-10T05:08:21;22.15;;;8.05;;
4696;SDS011;2362;50.780;0.292;2023-05-10T05:11:12;21.73;;;8.77;;
4696;SDS011;2362;50.780;0.292;2023-05-10T05:13:39;18.45;;;8.60;;
4696;SDS011;2362;50.780;0.292;2023-05-10T05:16:04;23.50;;;8.52;;
4696;SDS011;2362;50.780;0.292;2023-05-10T05:18:30;18.23;;;8.05;;
4696;SDS011;2362;50.780;0.292;2023-05-10T05:20:56;25.40;;;8.13;;
4696;SDS011;2362;50.780;0.292;2023-05-10T05:23:21;22.63;;;8.38;;
4696;SDS011;2362;50.780;0.292;2023-05-10T05:25:51;24.88;;;8.32;;
4696;SDS011;2362;50.780;0.292;2023-05-10T05:28:20;22.20;;;8.50;;
4696;SDS011;2362;50.780;0.292;2023-05-10T05:30:46;23.40;;;8.68;;
4696;SDS011;2362;50.780;0.292;2023-05-10T05:33:13;17.63;;;6.90;;
4696;SDS011;2362;50.780;0.292;2023-05-10T05:35:40;27.92;;;9.60;;
4696;SDS011;2362;50.780;0.292;2023-05-10T05:38:32;24.35;;;7.85;;
4696;SDS011;2362;50.780;0.292;2023-05-10T05:40:58;20.45;;;8.32;;
4696;SDS011;2362;50.780;0.292;2023-05-10T05:43:23;28.25;;;8.63;;
4696;SDS011;2362;50.780;0.292;2023-05-10T05:45:49;22.23;;;8.05;;
4696;SDS011;2362;50.780;0.292;2023-05-10T05:48:18;31.67;;;8.25;;
4696;SDS011;2362;50.780;0.292;2023-05-10T05:50:44;21.00;;;8.05;;
4696;SDS011;2362;50.780;0.292;2023-05-10T05:53:10;23.25;;;8.93;;
4696;SDS011;2362;50.780;0.292;2023-05-10T05:55:36;32.00;;;9.15;;
4696;SDS011;2362;50.780;0.292;2023-05-10T05:58:02;18.23;;;8.88;;
4696;SDS011;2362;50.780;0.292;2023-05-10T06:00:28;22.88;;;8.60;;
4696;SDS011;2362;50.780;0.292;2023-05-10T06:02:53;31.17;;;8.80;;
4696;SDS011;2362;50.780;0.292;2023-05-10T06:05:19;29.10;;;9.07;;
4696;SDS011;2362;50.780;0.292;2023-05-10T06:07:45;23.80;;;7.63;;
4696;SDS011;2362;50.780;0.292;2023-05-10T06:10:11;18.00;;;7.63;;
4696;SDS011;2362;50.780;0.292;2023-05-10T06:12:37;19.35;;;7.28;;
4696;SDS011;2362;50.780;0.292;2023-05-10T06:15:03;18.15;;;6.97;;
4696;SDS011;2362;50.780;0.292;2023-05-10T06:17:55;20.98;;;8.13;;
4696;SDS011;2362;50.780;0.292;2023-05-10T06:20:45;23.50;;;7.22;;
4696;SDS011;2362;50.780;0.292;2023-05-10T06:23:14;20.90;;;6.50;;
4696;SDS011;2362;50.780;0.292;2023-05-10T06:25:39;16.75;;;7.15;;
4696;SDS011;2362;50.780;0.292;2023-05-10T06:28:05;29.25;;;7.10;;
4696;SDS011;2362;50.780;0.292;2023-05-10T06:30:31;20.80;;;6.15;;
4696;SDS011;2362;50.780;0.292;2023-05-10T06:32:56;20.25;;;6.47;;
4696;SDS011;2362;50.780;0.292;2023-05-10T06:35:22;20.45;;;5.85;;
4696;SDS011;2362;50.780;0.292;2023-05-10T06:37:48;23.17;;;6.03;;
4696;SDS011;2362;50.780;0.292;2023-05-10T06:40:14;19.48;;;5.75;;
4696;SDS011;2362;50.780;0.292;2023-05-10T06:42:40;28.75;;;6.53;;
4696;SDS011;2362;50.780;0.292;2023-05-10T06:45:05;18.30;;;6.00;;
4696;SDS011;2362;50.780;0.292;2023-05-10T06:47:31;15.85;;;5.43;;
4696;SDS011;2362;50.780;0.292;2023-05-10T06:49:57;20.20;;;5.15;;
4696;SDS011;2362;50.780;0.292;2023-05-10T06:52:23;22.27;;;5.47;;
4696;SDS011;2362;50.780;0.292;2023-05-10T06:54:51;22.35;;;5.45;;
4696;SDS011;2362;50.780;0.292;2023-05-10T06:57:16;24.02;;;5.40;;
4696;SDS011;2362;50.780;0.292;2023-05-10T06:59:42;29.95;;;5.13;;
4696;SDS011;2362;50.780;0.292;2023-05-10T07:02:08;13.93;;;4.82;;
4696;SDS011;2362;50.780;0.292;2023-05-10T07:04:34;13.70;;;4.45;;
4696;SDS011;2362;50.780;0.292;2023-05-10T07:06:59;23.80;;;5.40;;
4696;SDS011;2362;50.780;0.292;2023-05-10T07:09:25;26.45;;;6.47;;
4696;SDS011;2362;50.780;0.292;2023-05-10T07:11:51;20.05;;;4.82;;
4696;SDS011;2362;50.780;0.292;2023-05-10T07:14:16;23.15;;;4.57;;
4696;SDS011;2362;50.780;0.292;2023-05-10T07:16:42;22.67;;;4.43;;
4696;SDS011;2362;50.780;0.292;2023-05-10T07:19:07;17.55;;;3.50;;
4696;SDS011;2362;50.780;0.292;2023-05-10T07:21:34;19.35;;;4.45;;
4696;SDS011;2362;50.780;0.292;2023-05-10T07:24:00;21.35;;;4.95;;
4696;SDS011;2362;50.780;0.292;2023-05-10T07:26:26;31.52;;;4.05;;
4696;SDS011;2362;50.780;0.292;2023-05-10T07:28:51;15.30;;;3.60;;
4696;SDS011;2362;50.780;0.292;2023-05-10T07:31:17;16.85;;;3.75;;
4696;SDS011;2362;50.780;0.292;2023-05-10T07:33:42;23.38;;;5.57;;
4696;SDS011;2362;50.780;0.292;2023-05-10T07:36:08;20.58;;;4.45;;
4696;SDS011;2362;50.780;0.292;2023-05-10T07:38:34;27.20;;;5.30;;
4696;SDS011;2362;50.780;0.292;2023-05-10T07:40:59;15.35;;;3.42;;
4696;SDS011;2362;50.780;0.292;2023-05-10T07:43:25;12.57;;;3.30;;
4696;SDS011;2362;50.780;0.292;2023-05-10T07:45:50;12.93;;;2.97;;
4696;SDS011;2362;50.780;0.292;2023-05-10T07:48:16;11.63;;;3.10;;
4696;SDS011;2362;50.780;0.292;2023-05-10T07:50:42;20.17;;;4.22;;
4696;SDS011;2362;50.780;0.292;2023-05-10T07:53:07;19.20;;;3.33;;
4696;SDS011;2362;50.780;0.292;2023-05-10T07:55:33;12.55;;;3.15;;
4696;SDS011;2362;50.780;0.292;2023-05-10T07:58:24;13.73;;;4.05;;
4696;SDS011;2362;50.780;0.292;2023-05-10T08:01:15;9.57;;;3.42;;
4696;SDS011;2362;50.780;0.292;2023-05-10T08:04:31;15.80;;;3.50;;
4696;SDS011;2362;50.780;0.292;2023-05-10T08:06:57;16.88;;;2.85;;
4696;SDS011;2362;50.780;0.292;2023-05-10T08:09:23;13.75;;;3.10;;
4696;SDS011;2362;50.780;0.292;2023-05-10T08:11:49;13.00;;;2.67;;
4696;SDS011;2362;50.780;0.292;2023-05-10T08:14:16;16.65;;;3.03;;
4696;SDS011;2362;50.780;0.292;2023-05-10T08:16:42;18.23;;;3.20;;
4696;SDS011;2362;50.780;0.292;2023-05-10T08:19:07;16.30;;;3.40;;
4696;SDS011;2362;50.780;0.292;2023-05-10T08:21:33;16.00;;;5.05;;
4696;SDS011;2362;50.780;0.292;2023-05-10T08:23:58;14.20;;;3.67;;
4696;SDS011;2362;50.780;0.292;2023-05-10T08:26:24;23.65;;;5.00;;
4696;SDS011;2362;50.780;0.292;2023-05-10T08:28:50;23.17;;;5.20;;
4696;SDS011;2362;50.780;0.292;2023-05-10T08:31:16;25.92;;;6.20;;
4696;SDS011;2362;50.780;0.292;2023-05-10T08:33:43;19.58;;;5.05;;
4696;SDS011;2362;50.780;0.292;2023-05-10T08:36:08;15.27;;;4.95;;
4696;SDS011;2362;50.780;0.292;2023-05-10T08:38:38;21.48;;;5.53;;
4696;SDS011;2362;50.780;0.292;2023-05-10T08:41:03;24.02;;;6.07;;
4696;SDS011;2362;50.780;0.292;2023-05-10T08:43:30;27.27;;;5.60;;
4696;SDS011;2362;50.780;0.292;2023-05-10T08:45:58;27.17;;;6.57;;
4696;SDS011;2362;50.780;0.292;2023-05-10T08:48:26;22.65;;;5.65;;
4696;SDS011;2362;50.780;0.292;2023-05-10T08:50:54;26.63;;;6.43;;
4696;SDS011;2362;50.780;0.292;2023-05-10T08:53:23;25.20;;;5.90;;
4696;SDS011;2362;50.780;0.292;2023-05-10T08:55:52;27.70;;;6.80;;
4696;SDS011;2362;50.780;0.292;2023-05-10T08:58:18;22.95;;;5.53;;
4696;SDS011;2362;50.780;0.292;2023-05-10T09:00:44;26.48;;;6.40;;
4696;SDS011;2362;50.780;0.292;2023-05-10T09:03:11;24.13;;;6.55;;
4696;SDS011;2362;50.780;0.292;2023-05-10T09:05:38;23.85;;;6.10;;
4696;SDS011;2362;50.780;0.292;2023-05-10T09:08:04;27.95;;;5.93;;
4696;SDS011;2362;50.780;0.292;2023-05-10T09:10:31;26.15;;;5.63;;
4696;SDS011;2362;50.780;0.292;2023-05-10T09:12:57;24.33;;;5.55;;
4696;SDS011;2362;50.780;0.292;2023-05-10T09:15:23;21.95;;;5.13;;
4696;SDS011;2362;50.780;0.292;2023-05-10T09:17:49;25.80;;;5.10;;
4696;SDS011;2362;50.780;0.292;2023-05-10T09:20:15;28.08;;;5.55;;
4696;SDS011;2362;50.780;0.292;2023-05-10T09:22:42;23.10;;;5.32;;
4696;SDS011;2362;50.780;0.292;2023-05-10T09:27:39;20.15;;;5.50;;
4696;SDS011;2362;50.780;0.292;2023-05-10T09:30:06;22.92;;;6.13;;
4696;SDS011;2362;50.780;0.292;2023-05-10T09:32:39;21.23;;;5.38;;
4696;SDS011;2362;50.780;0.292;2023-05-10T09:35:07;27.02;;;4.63;;
4696;SDS011;2362;50.780;0.292;2023-05-10T09:37:34;18.67;;;5.22;;
4696;SDS011;2362;50.780;0.292;2023-05-10T09:39:59;22.75;;;5.32;;
4696;SDS011;2362;50.780;0.292;2023-05-10T09:42:25;31.20;;;7.07;;
4696;SDS011;2362;50.780;0.292;2023-05-10T09:44:51;29.55;;;6.63;;
4696;SDS011;2362;50.780;0.292;2023-05-10T09:47:17;29.45;;;6.57;;
4696;SDS011;2362;50.780;0.292;2023-05-10T09:49:44;16.10;;;4.40;;
4696;SDS011;2362;50.780;0.292;2023-05-10T09:52:15;24.73;;;5.20;;
4696;SDS011;2362;50.780;0.292;2023-05-10T09:54:42;27.05;;;6.28;;
4696;SDS011;2362;50.780;0.292;2023-05-10T09:57:21;22.30;;;5.47;;
4696;SDS011;2362;50.780;0.292;2023-05-10T09:59:48;25.70;;;5.88;;
4696;SDS011;2362;50.780;0.292;2023-05-10T10:02:15;23.42;;;5.80;;
4696;SDS011;2362;50.780;0.292;2023-05-10T10:04:42;22.98;;;5.93;;
4696;SDS011;2362;50.780;0.292;2023-05-10T10:07:08;28.02;;;5.78;;
4696;SDS011;2362;50.780;0.292;2023-05-10T10:09:34;20.67;;;5.20;;
4696;SDS011;2362;50.780;0.292;2023-05-10T10:12:00;23.48;;;5.97;;
4696;SDS011;2362;50.780;0.292;2023-05-10T10:14:27;24.20;;;5.43;;
4696;SDS011;2362;50.780;0.292;2023-05-10T10:16:54;30.30;;;5.70;;
4696;SDS011;2362;50.780;0.292;2023-05-10T10:19:20;33.42;;;6.22;;
4696;SDS011;2362;50.780;0.292;2023-05-10T10:21:49;27.88;;;5.57;;
4696;SDS011;2362;50.780;0.292;2023-05-10T10:24:16;22.50;;;4.93;;
4696;SDS011;2362;50.780;0.292;2023-05-10T10:26:41;22.45;;;5.35;;
4696;SDS011;2362;50.780;0.292;2023-05-10T10:34:33;28.42;;;5.72;;
4696;SDS011;2362;50.780;0.292;2023-05-10T10:37:04;31.88;;;6.13;;
4696;SDS011;2362;50.780;0.292;2023-05-10T10:39:30;38.17;;;6.95;;
4696;SDS011;2362;50.780;0.292;2023-05-10T10:41:56;31.52;;;6.95;;
4696;SDS011;2362;50.780;0.292;2023-05-10T10:52:27;37.10;;;7.80;;
4696;SDS011;2362;50.780;0.292;2023-05-10T10:54:59;27.73;;;6.13;;
4696;SDS011;2362;50.780;0.292;2023-05-10T10:57:26;31.80;;;6.53;;
4696;SDS011;2362;50.780;0.292;2023-05-10T11:05:27;23.90;;;5.78;;
4696;SDS011;2362;50.780;0.292;2023-05-10T11:08:27;22.48;;;5.72;;
4696;SDS011;2362;50.780;0.292;2023-05-10T11:15:56;25.05;;;5.78;;
4696;SDS011;2362;50.780;0.292;2023-05-10T11:18:24;26.85;;;6.03;;
4696;SDS011;2362;50.780;0.292;2023-05-10T11:21:00;23.52;;;6.22;;
4696;SDS011;2362;50.780;0.292;2023-05-10T11:26:09;22.58;;;5.18;;
4696;SDS011;2362;50.780;0.292;2023-05-10T11:28:45;27.02;;;6.03;;
4696;SDS011;2362;50.780;0.292;2023-05-10T11:31:19;38.55;;;7.28;;
4696;SDS011;2362;50.780;0.292;2023-05-10T11:33:49;28.98;;;5.53;;
4696;SDS011;2362;50.780;0.292;2023-05-10T11:36:19;32.30;;;6.53;;
4696;SDS011;2362;50.780;0.292;2023-05-10T11:38:46;37.50;;;6.88;;
4696;SDS011;2362;50.780;0.292;2023-05-10T11:41:13;28.58;;;6.15;;
4696;SDS011;2362;50.780;0.292;2023-05-10T11:43:41;33.30;;;6.35;;
4696;SDS011;2362;50.780;0.292;2023-05-10T11:46:07;38.22;;;6.00;;
4696;SDS011;2362;50.780;0.292;2023-05-10T11:48:35;39.55;;;6.07;;
4696;SDS011;2362;50.780;0.292;2023-05-10T11:51:01;38.55;;;6.65;;
4696;SDS011;2362;50.780;0.292;2023-05-10T11:53:31;23.48;;;5.47;;
4696;SDS011;2362;50.780;0.292;2023-05-10T11:56:04;25.20;;;5.25;;
4696;SDS011;2362;50.780;0.292;2023-05-10T11:58:31;42.47;;;5.55;;
4696;SDS011;2362;50.780;0.292;2023-05-10T12:00:58;31.58;;;6.53;;
4696;SDS011;2362;50.780;0.292;2023-05-10T12:03:25;31.42;;;6.55;;
4696;SDS011;2362;50.780;0.292;2023-05-10T12:05:54;35.85;;;5.72;;
4696;SDS011;2362;50.780;0.292;2023-05-10T12:08:22;28.25;;;5.22;;
4696;SDS011;2362;50.780;0.292;2023-05-10T12:10:49;29.38;;;5.70;;
4696;SDS011;2362;50.780;0.292;2023-05-10T12:13:15;29.77;;;6.10;;
4696;SDS011;2362;50.780;0.292;2023-05-10T12:15:42;36.47;;;6.65;;
4696;SDS011;2362;50.780;0.292;2023-05-10T12:18:14;31.17;;;5.85;;
4696;SDS011;2362;50.780;0.292;2023-05-10T12:20:47;38.17;;;5.28;;
4696;SDS011;2362;50.780;0.292;2023-05-10T12:23:13;34.72;;;5.38;;
4696;SDS011;2362;50.780;0.292;2023-05-10T12:25:38;26.60;;;4.85;;
4696;SDS011;2362;50.780;0.292;2023-05-10T12:28:05;33.80;;;5.80;;
4696;SDS011;2362;50.780;0.292;2023-05-10T12:30:33;35.35;;;5.15;;
4696;SDS011;2362;50.780;0.292;2023-05-10T12:33:10;40.47;;;6.10;;
4696;SDS011;2362;50.780;0.292;2023-05-10T12:35:44;33.92;;;5.47;;
4696;SDS011;2362;50.780;0.292;2023-05-10T12:40:50;28.10;;;4.53;;
4696;SDS011;2362;50.780;0.292;2023-05-10T12:43:16;35.20;;;4.68;;
4696;SDS011;2362;50.780;0.292;2023-05-10T12:45:41;39.65;;;6.00;;
4696;SDS011;2362;50.780;0.292;2023-05-10T12:48:07;32.60;;;5.60;;
4696;SDS011;2362;50.780;0.292;2023-05-10T12:50:33;25.00;;;4.60;;
4696;SDS011;2362;50.780;0.292;2023-05-10T12:52:58;30.35;;;5.40;;
4696;SDS011;2362;50.780;0.292;2023-05-10T12:55:24;40.97;;;5.05;;
4696;SDS011;2362;50.780;0.292;2023-05-10T12:57:50;29.33;;;5.25;;
4696;SDS011;2362;50.780;0.292;2023-05-10T13:00:15;28.15;;;4.57;;
4696;SDS011;2362;50.780;0.292;2023-05-10T13:02:41;38.83;;;5.80;;
4696;SDS011;2362;50.780;0.292;2023-05-10T13:05:07;30.75;;;4.32;;
4696;SDS011;2362;50.780;0.292;2023-05-10T13:07:33;28.00;;;5.00;;
4696;SDS011;2362;50.780;0.292;2023-05-10T13:09:58;28.98;;;5.63;;
4696;SDS011;2362;50.780;0.292;2023-05-10T13:12:24;29.70;;;4.50;;
4696;SDS011;2362;50.780;0.292;2023-05-10T13:14:50;33.60;;;6.45;;
4696;SDS011;2362;50.780;0.292;2023-05-10T13:17:15;26.38;;;4.63;;
4696;SDS011;2362;50.780;0.292;2023-05-10T13:19:41;33.20;;;5.15;;
4696;SDS011;2362;50.780;0.292;2023-05-10T13:22:07;26.80;;;4.50;;
4696;SDS011;2362;50.780;0.292;2023-05-10T13:24:32;29.25;;;4.75;;
4696;SDS011;2362;50.780;0.292;2023-05-10T13:26:58;31.52;;;4.82;;
4696;SDS011;2362;50.780;0.292;2023-05-10T13:29:23;28.05;;;4.43;;
4696;SDS011;2362;50.780;0.292;2023-05-10T13:31:49;22.02;;;5.05;;
4696;SDS011;2362;50.780;0.292;2023-05-10T13:34:15;32.63;;;4.25;;
4696;SDS011;2362;50.780;0.292;2023-05-10T13:36:40;25.70;;;3.95;;
4696;SDS011;2362;50.780;0.292;2023-05-10T13:39:06;29.50;;;3.55;;
4696;SDS011;2362;50.780;0.292;2023-05-10T13:41:32;28.75;;;4.65;;
4696;SDS011;2362;50.780;0.292;2023-05-10T13:43:58;23.00;;;4.68;;
4696;SDS011;2362;50.780;0.292;2023-05-10T13:46:24;28.65;;;4.60;;
4696;SDS011;2362;50.780;0.292;2023-05-10T13:48:51;25.85;;;4.20;;
4696;SDS011;2362;50.780;0.292;2023-05-10T13:51:17;19.02;;;3.88;;
4696;SDS011;2362;50.780;0.292;2023-05-10T13:53:42;26.23;;;4.35;;
4696;SDS011;2362;50.780;0.292;2023-05-10T13:56:08;16.48;;;4.03;;
4696;SDS011;2362;50.780;0.292;2023-05-10T13:58:34;22.27;;;3.90;;
4696;SDS011;2362;50.780;0.292;2023-05-10T14:01:00;19.73;;;3.95;;
4696;SDS011;2362;50.780;0.292;2023-05-10T14:03:26;24.83;;;3.88;;
4696;SDS011;2362;50.780;0.292;2023-05-10T14:05:51;19.33;;;3.13;;
4696;SDS011;2362;50.780;0.292;2023-05-10T14:08:17;21.17;;;3.60;;
4696;SDS011;2362;50.780;0.292;2023-05-10T14:10:43;25.38;;;3.20;;
4696;SDS011;2362;50.780;0.292;2023-05-10T14:13:08;23.98;;;4.40;;
4696;SDS011;2362;50.780;0.292;2023-05-10T14:15:34;18.02;;;3.17;;
4696;SDS011;2362;50.780;0.292;2023-05-10T14:18:00;25.67;;;3.67;;
4696;SDS011;2362;50.780;0.292;2023-05-10T14:20:25;17.83;;;4.03;;
4696;SDS011;2362;50.780;0.292;2023-05-10T14:22:51;26.77;;;3.85;;
4696;SDS011;2362;50.780;0.292;2023-05-10T14:25:17;19.00;;;3.25;;
4696;SDS011;2362;50.780;0.292;2023-05-10T14:27:43;26.13;;;4.18;;
4696;SDS011;2362;50.780;0.292;2023-05-10T14:30:08;28.98;;;4.80;;
4696;SDS011;2362;50.780;0.292;2023-05-10T14:32:34;21.98;;;3.45;;
4696;SDS011;2362;50.780;0.292;2023-05-10T14:35:01;27.42;;;3.95;;
4696;SDS011;2362;50.780;0.292;2023-05-10T14:37:27;25.23;;;4.13;;
4696;SDS011;2362;50.780;0.292;2023-05-10T14:39:53;29.63;;;3.17;;
4696;SDS011;2362;50.780;0.292;2023-05-10T14:42:19;28.05;;;3.38;;
4696;SDS011;2362;50.780;0.292;2023-05-10T14:44:45;22.98;;;3.55;;
4696;SDS011;2362;50.780;0.292;2023-05-10T14:47:11;21.08;;;4.80;;
4696;SDS011;2362;50.780;0.292;2023-05-10T14:49:36;27.15;;;3.55;;
4696;SDS011;2362;50.780;0.292;2023-05-10T14:52:02;19.30;;;3.50;;
4696;SDS011;2362;50.780;0.292;2023-05-10T14:54:28;24.42;;;4.32;;
4696;SDS011;2362;50.780;0.292;2023-05-10T14:56:53;21.70;;;3.50;;
4696;SDS011;2362;50.780;0.292;2023-05-10T14:59:20;21.08;;;3.08;;
4696;SDS011;2362;50.780;0.292;2023-05-10T15:01:45;21.98;;;3.10;;
4696;SDS011;2362;50.780;0.292;2023-05-10T15:04:11;14.30;;;2.95;;
4696;SDS011;2362;50.780;0.292;2023-05-10T15:06:38;21.90;;;3.30;;
4696;SDS011;2362;50.780;0.292;2023-05-10T15:09:04;22.75;;;3.20;;
4696;SDS011;2362;50.780;0.292;2023-05-10T15:11:29;29.58;;;4.15;;
4696;SDS011;2362;50.780;0.292;2023-05-10T15:13:55;27.33;;;4.60;;
4696;SDS011;2362;50.780;0.292;2023-05-10T15:16:21;21.83;;;4.20;;
4696;SDS011;2362;50.780;0.292;2023-05-10T15:18:46;22.05;;;3.92;;
4696;SDS011;2362;50.780;0.292;2023-05-10T15:21:15;27.02;;;4.20;;
4696;SDS011;2362;50.780;0.292;2023-05-10T15:23:41;19.50;;;3.55;;
4696;SDS011;2362;50.780;0.292;2023-05-10T15:26:08;20.35;;;3.22;;
4696;SDS011;2362;50.780;0.292;2023-05-10T15:28:35;19.20;;;3.65;;
4696;SDS011;2362;50.780;0.292;2023-05-10T15:31:01;22.95;;;4.70;;
4696;SDS011;2362;50.780;0.292;2023-05-10T15:33:31;27.58;;;3.92;;
4696;SDS011;2362;50.780;0.292;2023-05-10T15:35:57;32.25;;;3.95;;
4696;SDS011;2362;50.780;0.292;2023-05-10T15:38:23;20.15;;;4.32;;
4696;SDS011;2362;50.780;0.292;2023-05-10T15:40:48;25.38;;;4.88;;
4696;SDS011;2362;50.780;0.292;2023-05-10T15:43:14;22.35;;;4.10;;
4696;SDS011;2362;50.780;0.292;2023-05-10T15:45:40;19.10;;;2.97;;
4696;SDS011;2362;50.780;0.292;2023-05-10T15:48:06;29.02;;;4.57;;
4696;SDS011;2362;50.780;0.292;2023-05-10T15:50:31;28.92;;;4.13;;
4696;SDS011;2362;50.780;0.292;2023-05-10T15:52:57;24.67;;;3.60;;
4696;SDS011;2362;50.780;0.292;2023-05-10T15:55:23;23.50;;;4.15;;
4696;SDS011;2362;50.780;0.292;2023-05-10T15:57:50;29.70;;;4.15;;
4696;SDS011;2362;50.780;0.292;2023-05-10T16:00:16;17.75;;;3.42;;